Погода Сан Себастян ду Параисна 2 недели

Минас-Жерайс, Бразилия

23 июня-06 июля
  • 23июня
    Сегодня
    +14°
    +27°
    Пасмурно, сплошная облачность
    ВремяПогодаТемператураВлажностьДавлениеВетер, м/сВероятность осадков
    00:00Практически безоблачно+18°C65 %685 мм2.3 м/с5 %
    03:00Ясно и безоблачно+16°C73 %685 мм2.3 м/с5 %
    06:00Ясно и безоблачно+14°C71 %684 мм2.3 м/с5 %
    09:00Ясно и безоблачно+19°C58 %687 мм2.4 м/с5 %
    12:00Ясно и безоблачно+24°C40 %687 мм3.4 м/с5 %
    15:00Пасмурно, сплошная облачность+27°C35 %686 мм0.5 м/с5 %
    18:00Практически безоблачно+23°C54 %685 мм1.7 м/с5 %
    21:00Ясно и безоблачно+20°C60 %685 мм1.7 м/с5 %
  • 24июня
    Понедельник
    +15°
    +28°
    Ясно и безоблачно
    ВремяПогодаТемператураВлажностьДавлениеВетер, м/сВероятность осадков
    00:00Ясно и безоблачно+18°C66 %685 мм2.3 м/с5 %
    03:00Ясно и безоблачно+17°C70 %684 мм2.2 м/с5 %
    06:00Ясно и безоблачно+15°C71 %684 мм2.0 м/с5 %
    09:00Ясно и безоблачно+20°C57 %687 мм2.2 м/с5 %
    12:00Ясно и безоблачно+26°C37 %687 мм3.0 м/с5 %
    15:00Ясно и безоблачно+28°C34 %685 мм1.6 м/с5 %
    18:00Ясно и безоблачно+25°C43 %685 мм1.0 м/с5 %
    21:00Ясно и безоблачно+20°C56 %685 мм0.3 м/с5 %
  • 25июня
    Вторник
    +15°
    +30°
    Практически безоблачно
    ВремяПогодаТемператураВлажностьДавлениеВетер, м/сВероятность осадков
    00:00Ясно и безоблачно+19°C58 %685 мм1.5 м/с5 %
    03:00Ясно и безоблачно+18°C62 %684 мм1.6 м/с5 %
    06:00Ясно и безоблачно+15°C68 %684 мм1.8 м/с5 %
    09:00Ясно и безоблачно+21°C54 %687 мм1.6 м/с5 %
    12:00Ясно и безоблачно+28°C36 %688 мм1.6 м/с5 %
    15:00Практически безоблачно+29°C34 %686 мм1.6 м/с5 %
    18:00Ясно и безоблачно+25°C51 %687 мм1.6 м/с5 %
    21:00Ясно и безоблачно+21°C62 %686 мм2.0 м/с5 %
  • 26июня
    Среда
    +15°
    +28°
    Практически безоблачно
    ВремяПогодаТемператураВлажностьДавлениеВетер, м/сВероятность осадков
    00:00Ясно и безоблачно+19°C66 %686 мм2.1 м/с5 %
    03:00Ясно и безоблачно+18°C73 %686 мм3.3 м/с5 %
    06:00Ясно и безоблачно+16°C83 %686 мм3.3 м/с5 %
    09:00Ясно и безоблачно+21°C68 %688 мм3.9 м/с5 %
    12:00Ясно и безоблачно+26°C46 %688 мм4.0 м/с5 %
    15:00Практически безоблачно+28°C40 %686 мм2.6 м/с5 %
    18:00Практически безоблачно+24°C54 %686 мм1.5 м/с5 %
    21:00Практически безоблачно+22°C61 %686 мм1.7 м/с3 %
  • 27июня
    Четверг
    +16°
    +29°
    Небольшая облачность
    ВремяПогодаТемператураВлажностьДавлениеВетер, м/сВероятность осадков
    00:00Небольшая облачность+20°C68 %685 мм2.1 м/с4 %
    03:00Облачно с прояснениями+18°C69 %684 мм1.6 м/с4 %
    06:00Облачно с прояснениями+16°C69 %683 мм2.2 м/с5 %
    09:00Ясно и безоблачно+21°C54 %686 мм1.4 м/с5 %
    12:00Практически безоблачно+27°C33 %686 мм1.0 м/с5 %
    15:00Небольшая облачность+28°C30 %684 мм1.9 м/с5 %
    18:00Облачно с прояснениями+25°C44 %684 мм1.3 м/с5 %
    21:00Небольшая облачность+21°C50 %684 мм2.1 м/с5 %
Мы используем cookies
Соглашаюсь